createdAt,value
2023-04-27T00:03:37.943Z,5.00
2023-04-27T00:07:41.224Z,4.94
2023-04-27T00:11:44.885Z,4.80
2023-04-27T00:15:47.485Z,4.69
2023-04-27T00:19:52.203Z,4.65
2023-04-27T00:23:55.483Z,4.68
2023-04-27T00:27:58.194Z,4.71
2023-04-27T00:32:00.833Z,4.74
2023-04-27T00:36:05.275Z,4.81
2023-04-27T00:40:09.234Z,4.78
2023-04-27T00:44:11.849Z,4.71
2023-04-27T00:48:14.569Z,4.63
2023-04-27T00:52:19.065Z,4.51
2023-04-27T00:56:21.779Z,4.48
2023-04-27T01:00:24.710Z,4.44
2023-04-27T01:04:28.703Z,4.42
2023-04-27T01:08:33.010Z,4.40
2023-04-27T01:12:35.696Z,4.34
2023-04-27T01:16:38.911Z,4.29
2023-04-27T01:20:42.299Z,4.27
2023-04-27T01:24:47.022Z,4.32
2023-04-27T01:28:49.814Z,4.35
2023-04-27T01:32:52.537Z,4.38
2023-04-27T01:36:55.227Z,4.39
2023-04-27T01:41:01.970Z,4.38
2023-04-27T01:45:05.448Z,4.33
2023-04-27T01:49:08.998Z,4.31
2023-04-27T01:53:11.601Z,4.21
2023-04-27T01:57:16.041Z,4.19
2023-04-27T02:01:18.665Z,4.24
2023-04-27T02:05:21.362Z,4.25
2023-04-27T02:09:23.950Z,4.26
2023-04-27T02:13:27.839Z,4.29
2023-04-27T02:17:31.282Z,4.33
2023-04-27T02:21:33.891Z,4.33
2023-04-27T02:25:37.885Z,4.31
2023-04-27T02:29:41.871Z,4.30
2023-04-27T02:33:44.791Z,4.27
2023-04-27T02:37:47.495Z,4.26
2023-04-27T02:41:50.085Z,4.21
2023-04-27T02:45:54.025Z,4.19
2023-04-27T02:49:56.602Z,4.12
2023-04-27T02:53:59.213Z,4.04
2023-04-27T02:58:01.963Z,3.93
2023-04-27T03:02:05.946Z,3.91
2023-04-27T03:06:08.648Z,3.89
2023-04-27T03:10:12.237Z,3.85
2023-04-27T03:14:14.851Z,3.93
2023-04-27T03:18:18.801Z,3.97
2023-04-27T03:22:21.523Z,4.02
2023-04-27T03:26:24.812Z,4.05
2023-04-27T03:30:27.412Z,4.02
2023-04-27T03:34:31.360Z,4.07
2023-04-27T03:38:34.833Z,4.02
2023-04-27T03:42:37.402Z,3.99
2023-04-27T03:46:40.051Z,3.93
2023-04-27T03:50:44.649Z,3.88
2023-04-27T03:54:47.262Z,4.22
2023-04-27T03:58:49.881Z,4.82
2023-04-27T04:02:53.363Z,4.48
2023-04-27T04:06:57.596Z,4.21
2023-04-27T04:11:00.174Z,4.01
2023-04-27T04:15:03.648Z,3.93
2023-04-27T04:19:06.619Z,3.88
2023-04-27T04:23:10.554Z,3.83
2023-04-27T04:27:13.124Z,3.77
2023-04-27T04:31:17.573Z,3.72
2023-04-27T04:35:20.924Z,3.73
2023-04-27T04:39:24.921Z,3.71
2023-04-27T04:43:27.766Z,3.73
2023-04-27T04:47:31.770Z,3.73
2023-04-27T04:51:34.636Z,3.71
2023-04-27T04:55:38.779Z,3.63
2023-04-27T04:59:42.253Z,3.56
2023-04-27T05:03:45.134Z,3.49
2023-04-27T05:07:47.877Z,3.53
2023-04-27T05:11:52.293Z,3.66
2023-04-27T05:15:55.683Z,3.82
2023-04-27T05:19:58.294Z,4.02
2023-04-27T05:24:01.898Z,4.12
2023-04-27T05:28:06.069Z,4.20
2023-04-27T05:32:08.750Z,4.29
2023-04-27T05:36:11.386Z,4.42
2023-04-27T05:40:16.910Z,4.50
2023-04-27T05:44:21.063Z,4.64
2023-04-27T05:48:23.645Z,4.70
2023-04-27T05:52:30.938Z,4.82
2023-04-27T05:56:33.595Z,4.82
2023-04-27T06:00:38.468Z,4.88
2023-04-27T06:04:41.134Z,4.92
2023-04-27T06:08:43.768Z,4.98
2023-04-27T06:12:46.573Z,5.13
2023-04-27T06:16:50.577Z,5.27
2023-04-27T06:20:53.375Z,5.36
2023-04-27T06:24:55.982Z,5.45
2023-04-27T06:28:58.714Z,5.58
2023-04-27T06:33:02.765Z,5.70
2023-04-27T06:37:05.451Z,5.92
2023-04-27T06:41:08.056Z,6.21
2023-04-27T06:45:11.712Z,6.39
2023-04-27T06:49:16.074Z,6.64
2023-04-27T06:53:19.844Z,6.81
2023-04-27T06:57:23.047Z,6.96
2023-04-27T07:01:25.795Z,7.05
2023-04-27T07:05:29.731Z,7.24
2023-04-27T07:09:32.817Z,7.45
2023-04-27T07:13:35.871Z,7.65
2023-04-27T07:17:39.372Z,7.70
2023-04-27T07:21:43.367Z,7.86
2023-04-27T07:25:46.454Z,8.05
2023-04-27T07:29:49.213Z,8.15
2023-04-27T07:33:52.868Z,8.31
2023-04-27T07:37:56.847Z,8.46
2023-04-27T07:41:59.897Z,8.58
2023-04-27T07:46:03.657Z,8.65
2023-04-27T07:50:08.374Z,8.72
2023-04-27T07:54:12.465Z,8.87
2023-04-27T07:58:15.821Z,9.00
2023-04-27T08:02:20.272Z,9.12
2023-04-27T08:06:23.727Z,9.26
2023-04-27T08:10:28.100Z,9.47
2023-04-27T08:14:30.879Z,9.67
2023-04-27T08:18:33.703Z,9.83
2023-04-27T08:22:36.413Z,9.95
2023-04-27T08:26:42.009Z,10.02
2023-04-27T08:30:44.768Z,10.01
2023-04-27T08:34:47.825Z,10.13
2023-04-27T08:38:50.544Z,10.25
2023-04-27T08:42:59.832Z,10.38
2023-04-27T08:47:05.258Z,10.51
2023-04-27T08:51:11.803Z,10.59
2023-04-27T08:55:16.443Z,10.76
2023-04-27T08:59:21.818Z,10.92
2023-04-27T09:03:25.730Z,11.11
2023-04-27T09:07:28.774Z,11.38
2023-04-27T09:11:33.808Z,11.71
2023-04-27T09:15:47.116Z,11.85
2023-04-27T09:19:51.820Z,12.04
2023-04-27T09:23:55.771Z,12.16
2023-04-27T09:28:00.781Z,12.40
2023-04-27T09:32:17.355Z,12.42
2023-04-27T09:36:21.433Z,13.02
2023-04-27T09:40:26.776Z,13.05
2023-04-27T09:44:30.770Z,12.95
2023-04-27T09:48:34.742Z,12.99
2023-04-27T09:52:37.403Z,13.19
2023-04-27T09:56:49.563Z,13.15
2023-04-27T10:00:58.420Z,12.88
2023-04-27T10:05:26.248Z,13.42
2023-04-27T10:09:31.762Z,13.62
2023-04-27T10:13:34.612Z,14.08
2023-04-27T10:17:37.410Z,14.28
2023-04-27T10:21:52.682Z,14.37
2023-04-27T10:25:55.945Z,14.68
2023-04-27T10:30:11.077Z,14.79
2023-04-27T10:34:21.174Z,15.02
2023-04-27T10:38:30.887Z,15.18
2023-04-27T10:42:33.782Z,15.38
2023-04-27T10:46:37.461Z,15.37
2023-04-27T10:50:40.470Z,15.80
2023-04-27T10:54:48.750Z,15.43
2023-04-27T10:58:51.455Z,15.31
2023-04-27T11:02:55.829Z,14.81
2023-04-27T11:06:58.798Z,14.57
2023-04-27T11:11:03.780Z,15.22
2023-04-27T11:15:07.863Z,15.99
2023-04-27T11:19:10.513Z,16.42
2023-04-27T11:23:24.350Z,16.56
2023-04-27T11:27:37.736Z,16.67
2023-04-27T11:31:43.495Z,16.62
2023-04-27T11:35:46.311Z,16.95
2023-04-27T11:39:48.968Z,17.38
2023-04-27T11:43:52.929Z,17.71
2023-04-27T11:47:55.721Z,17.71
2023-04-27T11:51:58.744Z,17.33
2023-04-27T11:56:02.544Z,16.63
2023-04-27T12:00:11.296Z,16.62
2023-04-27T12:04:15.013Z,16.70
2023-04-27T12:08:18.130Z,17.47
2023-04-27T12:12:22.461Z,17.71
2023-04-27T12:16:26.835Z,17.86
2023-04-27T12:20:29.447Z,17.81
2023-04-27T12:24:32.360Z,17.87
2023-04-27T12:28:35.186Z,17.55
2023-04-27T12:32:39.720Z,17.01
2023-04-27T12:36:42.563Z,16.61
2023-04-27T12:40:45.728Z,17.19
2023-04-27T12:44:48.418Z,16.12
2023-04-27T12:48:52.415Z,16.33
2023-04-27T12:52:55.044Z,15.60
2023-04-27T12:56:57.889Z,16.00
2023-04-27T13:01:00.536Z,16.62
2023-04-27T13:05:07.782Z,16.95
2023-04-27T13:09:10.463Z,17.03
2023-04-27T13:13:13.665Z,17.29
2023-04-27T13:17:16.260Z,17.61
2023-04-27T13:21:20.612Z,17.72
2023-04-27T13:25:23.681Z,17.96
2023-04-27T13:29:26.685Z,17.83
2023-04-27T13:33:29.390Z,17.27
2023-04-27T13:37:33.620Z,16.65
2023-04-27T13:41:36.270Z,17.11
2023-04-27T13:45:40.680Z,17.90
2023-04-27T13:49:43.270Z,18.52
2023-04-27T13:53:47.378Z,18.86
2023-04-27T13:57:50.008Z,18.37
2023-04-27T14:01:52.667Z,17.46
2023-04-27T14:05:56.117Z,16.99
2023-04-27T14:10:00.276Z,16.89
2023-04-27T14:14:03.771Z,16.83
2023-04-27T14:18:07.795Z,16.86
2023-04-27T14:22:11.158Z,17.63
2023-04-27T14:26:15.840Z,17.99
2023-04-27T14:30:18.573Z,18.12
2023-04-27T14:34:21.761Z,18.39
2023-04-27T14:38:24.798Z,17.60
2023-04-27T14:42:29.642Z,16.70
2023-04-27T14:46:32.330Z,16.52
2023-04-27T14:50:35.113Z,16.68
2023-04-27T14:54:38.726Z,16.96
2023-04-27T14:58:42.700Z,16.75
2023-04-27T15:02:46.681Z,16.43
2023-04-27T15:06:49.307Z,16.88
2023-04-27T15:10:51.913Z,17.02
2023-04-27T15:14:56.264Z,17.48
2023-04-27T15:18:58.855Z,17.57
2023-04-27T15:23:01.507Z,17.91
2023-04-27T15:27:04.365Z,17.82
2023-04-27T15:31:08.356Z,17.64
2023-04-27T15:35:11.109Z,17.85
2023-04-27T15:39:14.050Z,17.38
2023-04-27T15:43:16.863Z,17.17
2023-04-27T15:47:21.306Z,17.18
2023-04-27T15:51:23.934Z,17.05
2023-04-27T15:55:26.708Z,17.03
2023-04-27T15:59:29.379Z,16.95
2023-04-27T16:03:34.761Z,16.61
2023-04-27T16:07:39.636Z,16.73
2023-04-27T16:11:42.673Z,17.45
2023-04-27T16:15:45.460Z,17.92
2023-04-27T16:19:49.506Z,17.92
2023-04-27T16:23:52.116Z,17.58
2023-04-27T16:27:54.760Z,17.20
2023-04-27T16:31:57.379Z,16.64
2023-04-27T16:36:01.671Z,16.34
2023-04-27T16:40:06.996Z,16.07
2023-04-27T16:44:09.786Z,16.04
2023-04-27T16:48:12.601Z,15.89
2023-04-27T16:52:17.159Z,16.10
2023-04-27T16:56:26.362Z,16.87
2023-04-27T17:00:29.510Z,17.35
2023-04-27T17:04:35.260Z,17.56
2023-04-27T17:08:39.434Z,17.40
2023-04-27T17:12:42.073Z,17.17
2023-04-27T17:16:44.751Z,16.20
2023-04-27T17:20:47.468Z,15.80
2023-04-27T17:24:51.512Z,15.55
2023-04-27T17:28:59.765Z,15.60
2023-04-27T17:33:03.215Z,15.61
2023-04-27T17:37:05.959Z,15.69
2023-04-27T17:41:10.051Z,15.50
2023-04-27T17:45:13.596Z,15.47
2023-04-27T17:49:17.589Z,15.39
2023-04-27T17:53:20.218Z,14.66
2023-04-27T17:57:24.402Z,14.55
2023-04-27T18:01:27.155Z,14.15
2023-04-27T18:05:29.895Z,13.57
2023-04-27T18:09:33.079Z,13.37
2023-04-27T18:13:37.783Z,13.25
2023-04-27T18:17:40.418Z,13.23
2023-04-27T18:21:43.224Z,13.20
2023-04-27T18:25:46.024Z,12.78
2023-04-27T18:29:51.897Z,12.45
2023-04-27T18:33:54.555Z,12.54
2023-04-27T18:37:57.572Z,12.53
2023-04-27T18:42:00.229Z,12.44
2023-04-27T18:46:04.665Z,11.96
2023-04-27T18:50:08.772Z,11.53
2023-04-27T18:54:11.491Z,11.28
2023-04-27T18:58:14.177Z,10.96
2023-04-27T19:02:18.245Z,10.99
2023-04-27T19:06:21.381Z,11.19
2023-04-27T19:10:24.197Z,11.17
2023-04-27T19:14:26.849Z,11.07
2023-04-27T19:18:30.960Z,10.94
2023-04-27T19:22:34.928Z,10.92
2023-04-27T19:26:37.805Z,10.86
2023-04-27T19:30:40.660Z,10.92
2023-04-27T19:34:44.714Z,10.95
2023-04-27T19:38:47.319Z,10.83
2023-04-27T19:42:50.458Z,10.79
2023-04-27T19:46:53.070Z,10.69
2023-04-27T19:50:57.181Z,10.54
2023-04-27T19:55:00.105Z,10.35
2023-04-27T19:59:02.905Z,10.23
2023-04-27T20:03:06.434Z,10.14
2023-04-27T20:07:11.253Z,10.07
2023-04-27T20:11:14.536Z,10.02
2023-04-27T20:15:17.329Z,9.88
2023-04-27T20:19:20.862Z,9.77
2023-04-27T20:23:24.987Z,9.67
2023-04-27T20:27:27.946Z,9.53
2023-04-27T20:31:31.538Z,9.39
2023-04-27T20:35:36.259Z,9.40
2023-04-27T20:39:40.357Z,9.38
2023-04-27T20:43:45.620Z,9.29
2023-04-27T20:47:48.470Z,9.22
2023-04-27T20:51:51.282Z,9.13
2023-04-27T20:55:55.221Z,9.05
2023-04-27T20:59:57.840Z,9.08
2023-04-27T21:04:01.676Z,9.05
2023-04-27T21:08:04.694Z,8.97
2023-04-27T21:12:09.004Z,8.97
2023-04-27T21:16:11.649Z,8.93
2023-04-27T21:20:14.331Z,8.85
2023-04-27T21:24:16.960Z,8.74
2023-04-27T21:28:21.575Z,8.64
2023-04-27T21:32:24.186Z,8.58
2023-04-27T21:36:26.892Z,8.48
2023-04-27T21:40:29.476Z,8.44
2023-04-27T21:44:33.440Z,8.35
2023-04-27T21:48:36.199Z,8.27
2023-04-27T21:52:38.932Z,8.17
2023-04-27T21:56:41.680Z,8.20
2023-04-27T22:00:45.625Z,8.25
2023-04-27T22:04:49.897Z,8.29
2023-04-27T22:08:52.772Z,8.28
2023-04-27T22:12:56.823Z,8.17
2023-04-27T22:17:02.230Z,8.01
2023-04-27T22:21:05.246Z,7.95
2023-04-27T22:25:08.877Z,7.85
2023-04-27T22:29:12.076Z,7.76
2023-04-27T22:33:16.674Z,7.69
2023-04-27T22:37:19.854Z,7.66
2023-04-27T22:41:22.534Z,7.63
2023-04-27T22:45:25.321Z,7.58
2023-04-27T22:49:29.613Z,7.57
2023-04-27T22:53:32.213Z,7.52
2023-04-27T22:57:34.844Z,7.49
2023-04-27T23:01:37.502Z,7.38
2023-04-27T23:05:42.384Z,7.30
2023-04-27T23:09:45.755Z,7.26
2023-04-27T23:13:50.576Z,7.22
2023-04-27T23:17:53.246Z,7.14
2023-04-27T23:21:57.190Z,7.16
2023-04-27T23:25:59.794Z,7.17
2023-04-27T23:30:02.818Z,7.15
2023-04-27T23:34:05.447Z,7.11
2023-04-27T23:38:09.395Z,7.10
2023-04-27T23:42:12.024Z,7.16
2023-04-27T23:46:15.186Z,7.15
2023-04-27T23:50:17.995Z,7.16
2023-04-27T23:54:21.976Z,7.19
2023-04-27T23:58:26.069Z,7.25
